Time;durP1;ratioP1;P1;durP2;ratioP2;P2;SDS_P1;SDS_P2;PMS_P1;PMS_P2;Temp;Humidity;BMP_temperature;BMP_pressure;BME280_temperature;BME280_humidity;BME280_pressure;Samples;Min_cycle;Max_cycle;Signal;HPM_P1;HPM_P2
2022/07/02 00:00:42;;;;;;;6.93;5.63;;;;;;;22.94;45.69;94055.03;4969050;28;20030;-77
2022/07/02 00:03:09;;;;;;;6.68;5.45;;;;;;;22.63;46.15;94044.88;4971785;28;20403;-78
2022/07/02 00:05:41;;;;;;;5.90;5.28;;;;;;;22.73;46.24;94053.03;4971084;28;20487;-77
2022/07/02 00:08:08;;;;;;;6.68;5.97;;;;;;;22.49;46.84;94036.69;4972565;28;20505;-78
2022/07/02 00:10:33;;;;;;;7.28;5.82;;;;;;;22.63;46.79;94055.72;4971791;28;20046;-77
2022/07/02 00:13:01;;;;;;;6.65;5.13;;;;;;;22.46;46.90;94023.91;4969245;28;20042;-76
2022/07/02 00:15:26;;;;;;;6.82;5.15;;;;;;;22.69;46.65;94059.59;4970602;28;20045;-78
2022/07/02 00:17:52;;;;;;;6.80;5.60;;;;;;;22.71;46.33;94043.75;4970617;28;20038;-77
2022/07/02 00:20:17;;;;;;;6.03;5.03;;;;;;;22.64;45.95;94003.03;4969621;28;20074;-77
2022/07/02 00:22:44;;;;;;;6.00;5.13;;;;;;;23.11;46.53;94059.72;4969207;28;20031;-77
2022/07/02 00:25:09;;;;;;;13.10;5.53;;;;;;;23.20;45.87;94056.63;4971458;28;20041;-77
2022/07/02 00:27:39;;;;;;;5.70;5.10;;;;;;;23.11;45.83;94038.00;4970623;28;20039;-77
2022/07/02 00:30:05;;;;;;;6.13;5.53;;;;;;;23.32;46.46;94063.59;4970224;28;20078;-77
2022/07/02 00:32:33;;;;;;;11.07;5.40;;;;;;;23.26;46.42;94043.44;4969720;28;20506;-77
2022/07/02 00:35:03;;;;;;;8.30;5.35;;;;;;;23.35;46.14;94051.97;4973282;28;20037;-77
2022/07/02 00:37:28;;;;;;;8.10;5.85;;;;;;;23.33;46.08;94059.72;4970131;28;20031;-76
2022/07/02 00:39:55;;;;;;;9.18;5.40;;;;;;;23.22;46.66;94042.66;4970255;28;20380;-77
2022/07/02 00:42:24;;;;;;;5.90;5.28;;;;;;;23.20;46.09;94034.13;4970975;28;20040;-77
2022/07/02 00:44:50;;;;;;;6.57;5.45;;;;;;;23.26;46.47;94051.59;4976680;28;20065;-77
2022/07/02 00:47:17;;;;;;;6.53;5.45;;;;;;;23.19;46.97;94054.28;4970230;28;20023;-76
2022/07/02 00:49:42;;;;;;;6.53;5.65;;;;;;;22.96;46.74;94025.59;4969684;28;20035;-76
2022/07/02 00:52:08;;;;;;;5.55;5.05;;;;;;;23.21;46.38;94058.16;4969366;28;20537;-77
2022/07/02 00:54:35;;;;;;;8.15;5.65;;;;;;;23.08;47.25;94057.75;4968208;28;20034;-77
2022/07/02 00:57:02;;;;;;;7.28;4.75;;;;;;;23.15;46.96;94060.50;4969626;28;20061;-76
2022/07/02 00:59:28;;;;;;;7.43;5.72;;;;;;;23.01;46.80;94049.63;4968968;28;20026;-77
2022/07/02 01:01:54;;;;;;;5.78;4.65;;;;;;;22.97;46.79;94048.84;4971469;28;20081;-76
2022/07/02 01:04:20;;;;;;;7.38;4.85;;;;;;;23.04;47.11;94065.13;4971506;28;20031;-78
2022/07/02 01:06:47;;;;;;;6.75;4.82;;;;;;;22.94;46.90;94048.84;4969533;28;20111;-78
2022/07/02 01:12:00;;;;;;;7.13;5.75;;;;;;;23.06;47.01;94064.75;4968902;28;20045;-77
2022/07/02 01:14:26;;;;;;;7.68;5.25;;;;;;;23.06;46.83;94065.53;4970680;28;20076;-77
2022/07/02 01:16:52;;;;;;;5.88;5.28;;;;;;;23.01;46.98;94038.78;4971163;28;20038;-76
2022/07/02 01:19:19;;;;;;;7.50;4.97;;;;;;;23.17;46.72;94047.28;4969258;28;20039;-77
2022/07/02 01:22:09;;;;;;;6.55;5.70;;;;;;;23.12;46.76;94036.84;4967605;28;20491;-77
2022/07/02 01:24:34;;;;;;;5.88;5.28;;;;;;;22.48;46.78;93978.25;4976634;28;20085;-77
2022/07/02 01:27:00;;;;;;;5.90;5.18;;;;;;;22.94;46.84;94033.34;4965091;28;20030;-76
2022/07/02 01:29:25;;;;;;;6.20;5.25;;;;;;;22.57;47.26;93989.50;4969495;28;20602;-77
2022/07/02 01:31:51;;;;;;;5.78;5.18;;;;;;;22.88;47.05;94024.03;4969071;28;20041;-76
2022/07/02 01:34:16;;;;;;;6.30;5.68;;;;;;;22.86;47.00;94020.13;4976086;28;20034;-76
2022/07/02 01:36:41;;;;;;;6.47;4.53;;;;;;;22.89;46.95;94028.28;4971074;28;20035;-77
2022/07/02 01:39:07;;;;;;;6.03;4.82;;;;;;;22.79;46.84;94014.69;4971076;28;20074;-77
2022/07/02 01:41:38;;;;;;;5.75;5.15;;;;;;;22.93;46.97;94039.13;4974491;28;20031;-75
2022/07/02 01:44:04;;;;;;;5.97;5.05;;;;;;;22.78;46.82;94019.34;4972968;28;20026;-77
2022/07/02 01:46:29;;;;;;;6.55;5.07;;;;;;;22.93;46.92;94037.22;4973108;28;20050;-75
2022/07/02 01:48:55;;;;;;;5.22;4.47;;;;;;;22.85;46.90;94024.78;4975002;28;20121;-77
2022/07/02 01:51:20;;;;;;;6.88;4.53;;;;;;;22.82;46.93;94017.44;4973985;28;20065;-77
2022/07/02 01:53:45;;;;;;;7.22;5.05;;;;;;;22.85;47.31;94035.63;4971931;28;20553;-78
2022/07/02 01:56:11;;;;;;;5.63;4.65;;;;;;;22.70;47.31;94012.34;4973829;28;20046;-77
2022/07/02 01:58:36;;;;;;;6.43;5.38;;;;;;;22.78;46.96;94032.13;4972080;28;20082;-77
2022/07/02 02:01:01;;;;;;;5.90;4.80;;;;;;;22.70;47.65;94023.97;4972703;28;20591;-77
2022/07/02 02:03:27;;;;;;;4.97;4.45;;;;;;;22.88;47.48;94044.97;4972131;28;20063;-77
2022/07/02 02:05:53;;;;;;;5.57;4.88;;;;;;;22.56;47.29;94012.34;4971480;28;20038;-77
2022/07/02 02:08:18;;;;;;;5.18;4.78;;;;;;;22.77;47.50;94039.50;4975225;28;20034;-77
2022/07/02 02:10:43;;;;;;;5.55;4.80;;;;;;;22.75;47.80;94052.66;4970597;28;20101;-77
2022/07/02 02:13:09;;;;;;;5.35;4.75;;;;;;;22.74;48.09;94040.25;4974700;28;20428;-77
2022/07/02 02:15:34;;;;;;;8.55;5.00;;;;;;;22.64;47.92;94027.44;4972298;28;20042;-76
2022/07/02 02:17:59;;;;;;;5.95;5.13;;;;;;;22.52;47.86;94006.13;4975741;28;20034;-77
2022/07/02 02:20:25;;;;;;;5.30;4.40;;;;;;;22.52;47.82;94000.72;4972595;28;20368;-77
2022/07/02 02:22:50;;;;;;;5.45;4.75;;;;;;;22.67;47.94;94037.53;4973677;28;20045;-77
2022/07/02 02:25:16;;;;;;;5.80;4.18;;;;;;;22.63;48.16;94034.06;4973429;28;20034;-77
2022/07/02 02:27:41;;;;;;;5.88;5.35;;;;;;;22.55;48.25;94035.16;4973604;28;20030;-76
2022/07/02 02:30:07;;;;;;;6.50;5.10;;;;;;;22.46;48.17;94029.34;4972178;28;20090;-77
2022/07/02 02:32:32;;;;;;;7.93;6.07;;;;;;;22.41;48.30;94029.72;4969643;28;20030;-76
2022/07/02 02:34:58;;;;;;;8.73;5.55;;;;;;;22.48;48.53;94060.34;4971116;28;20027;-77
2022/07/02 02:37:23;;;;;;;8.85;6.13;;;;;;;22.43;48.70;94058.00;4979751;28;21564;-77
2022/07/02 02:39:49;;;;;;;8.45;6.15;;;;;;;22.32;48.64;94051.75;4973599;28;20030;-77
2022/07/02 02:42:14;;;;;;;8.35;6.47;;;;;;;22.39;48.69;94061.84;4972547;28;20035;-76
2022/07/02 02:44:39;;;;;;;9.27;6.93;;;;;;;22.24;49.26;94061.03;4971993;28;20525;-76
2022/07/02 02:47:05;;;;;;;9.48;6.60;;;;;;;22.08;49.27;94047.75;4973294;28;20435;-76
2022/07/02 02:49:30;;;;;;;9.25;6.65;;;;;;;22.14;49.60;94061.72;4969919;28;20046;-77
2022/07/02 02:51:55;;;;;;;9.95;7.05;;;;;;;22.00;49.96;94048.13;4971338;28;20073;-77
2022/07/02 02:54:21;;;;;;;8.98;6.82;;;;;;;22.01;49.85;94058.53;4972000;28;20050;-77
2022/07/02 02:56:46;;;;;;;9.07;6.70;;;;;;;22.08;50.16;94080.25;4973266;28;20932;-76
2022/07/02 02:59:12;;;;;;;9.00;6.97;;;;;;;22.09;49.94;94075.63;4971738;28;20541;-78
2022/07/02 03:01:37;;;;;;;11.98;7.07;;;;;;;22.19;50.02;94075.66;5001418;28;20045;-76
2022/07/02 03:04:03;;;;;;;7.75;6.70;;;;;;;22.10;49.72;94056.25;4971211;28;20038;-77
2022/07/02 03:06:28;;;;;;;7.28;5.95;;;;;;;22.29;49.76;94085.78;4971337;28;20081;-78
2022/07/02 03:08:53;;;;;;;6.18;5.50;;;;;;;21.98;50.12;94053.13;4970338;28;20042;-77
2022/07/02 03:11:19;;;;;;;8.18;5.93;;;;;;;22.15;49.92;94084.91;4971753;28;20124;-77
2022/07/02 03:13:44;;;;;;;10.65;6.50;;;;;;;22.08;50.08;94091.09;4971045;28;20046;-77
2022/07/02 03:16:09;;;;;;;7.22;5.38;;;;;;;22.05;50.42;94091.06;4970210;28;20661;-77
2022/07/02 03:18:35;;;;;;;8.00;5.90;;;;;;;22.03;50.68;94093.38;4970764;28;20038;-77
2022/07/02 03:21:00;;;;;;;8.15;5.78;;;;;;;21.91;50.74;94080.16;4971335;28;20034;-76
2022/07/02 03:23:26;;;;;;;5.88;5.35;;;;;;;21.96;51.03;94090.63;4970758;28;20680;-76
2022/07/02 03:25:51;;;;;;;9.45;5.78;;;;;;;21.94;51.28;94095.66;4970243;28;20418;-77
2022/07/02 03:28:17;;;;;;;7.28;5.85;;;;;;;21.89;51.27;94096.78;4976827;28;20453;-76
2022/07/02 03:30:42;;;;;;;6.22;5.43;;;;;;;21.77;51.57;94068.09;4971003;28;20135;-77
2022/07/02 03:33:07;;;;;;;6.38;5.55;;;;;;;22.04;51.20;94092.22;4971479;28;20043;-76
2022/07/02 03:35:33;;;;;;;9.38;6.97;;;;;;;22.01;50.94;94087.56;4972566;28;20030;-77
2022/07/02 03:37:59;;;;;;;6.55;5.85;;;;;;;22.09;51.36;94105.41;4971049;28;20406;-77
2022/07/02 03:40:25;;;;;;;8.02;6.07;;;;;;;22.06;51.35;94093.38;4969283;28;20041;-77
2022/07/02 03:42:50;;;;;;;8.50;6.57;;;;;;;22.11;50.81;94082.19;4970244;28;20034;-77
2022/07/02 03:45:15;;;;;;;6.68;5.90;;;;;;;22.28;51.42;94107.88;4971978;28;20050;-77
2022/07/02 03:47:41;;;;;;;11.20;6.97;;;;;;;22.40;51.58;94106.75;4970534;28;20101;-77
2022/07/02 03:50:07;;;;;;;7.63;6.78;;;;;;;22.43;51.41;94106.00;4970909;28;20117;-77
2022/07/02 03:52:32;;;;;;;9.77;7.78;;;;;;;22.23;51.71;94076.50;4969116;28;20039;-77
2022/07/02 03:54:58;;;;;;;8.10;7.18;;;;;;;22.42;52.05;94094.38;4972186;28;21205;-77
2022/07/02 03:57:23;;;;;;;12.32;8.20;;;;;;;22.46;51.90;94086.25;4971925;28;20035;-77
2022/07/02 03:59:49;;;;;;;11.80;8.48;;;;;;;22.69;51.85;94113.81;4986575;28;20113;-76
2022/07/02 04:02:14;;;;;;;11.77;8.13;;;;;;;22.53;51.52;94083.56;4971600;28;20100;-76
2022/07/02 04:04:39;;;;;;;10.43;7.95;;;;;;;22.74;51.88;94121.59;4969442;28;20533;-77
2022/07/02 04:07:05;;;;;;;11.15;8.93;;;;;;;22.61;51.67;94085.94;4971109;28;20060;-77
2022/07/02 04:09:30;;;;;;;11.82;8.68;;;;;;;22.80;51.57;94106.50;4970619;28;20561;-77
2022/07/02 04:11:56;;;;;;;10.02;8.40;;;;;;;22.72;51.40;94092.16;4969064;28;20031;-77
2022/07/02 04:14:21;;;;;;;9.43;7.63;;;;;;;22.77;51.15;94098.38;4970423;28;20474;-77
2022/07/02 04:16:46;;;;;;;10.93;7.70;;;;;;;22.90;50.50;94113.91;4970391;28;20026;-77
2022/07/02 04:19:12;;;;;;;9.55;7.72;;;;;;;22.93;50.13;94107.72;4971163;28;20034;-77
2022/07/02 04:21:37;;;;;;;9.63;7.88;;;;;;;23.05;50.17;94120.16;5002111;28;20495;-76
2022/07/02 04:24:02;;;;;;;10.05;7.43;;;;;;;23.11;50.72;94115.91;4969907;28;20041;-77
2022/07/02 04:26:28;;;;;;;9.70;7.38;;;;;;;23.17;51.32;94105.47;4970309;28;20501;-77
2022/07/02 04:28:53;;;;;;;9.80;7.28;;;;;;;23.28;51.01;94117.06;4970197;28;20039;-77
2022/07/02 04:31:19;;;;;;;11.52;8.63;;;;;;;22.93;51.18;94124.00;4970820;28;20082;-76
2022/07/02 04:33:45;;;;;;;11.18;8.95;;;;;;;22.98;50.46;94114.69;4968678;28;20050;-77
2022/07/02 04:36:11;;;;;;;11.43;8.70;;;;;;;23.04;50.72;94130.22;4968762;28;20035;-77
2022/07/02 04:38:37;;;;;;;10.98;8.57;;;;;;;23.07;50.55;94101.56;4969872;28;20030;-76
2022/07/02 04:41:03;;;;;;;11.57;9.00;;;;;;;23.01;50.16;94122.88;4970998;28;20394;-75
2022/07/02 04:43:28;;;;;;;11.65;8.70;;;;;;;23.23;49.72;94128.31;4970086;28;20031;-76
2022/07/02 04:45:53;;;;;;;12.95;9.07;;;;;;;23.28;50.13;94109.72;4969575;28;20130;-76
2022/07/02 04:48:19;;;;;;;11.15;9.43;;;;;;;23.36;50.31;94134.94;4969126;28;20046;-76
2022/07/02 04:50:45;;;;;;;13.50;10.30;;;;;;;23.37;50.05;94118.25;4968327;28;20570;-77
2022/07/02 04:53:11;;;;;;;13.00;10.15;;;;;;;23.14;49.83;94102.34;4971246;28;20023;-77
2022/07/02 04:55:36;;;;;;;13.68;9.45;;;;;;;23.43;49.74;94115.94;4966358;28;21236;-76
2022/07/02 04:58:02;;;;;;;12.90;9.95;;;;;;;23.36;49.57;94080.66;4970510;28;20055;-76
2022/07/02 05:00:27;;;;;;;20.80;10.00;;;;;;;23.60;49.55;94106.28;4971221;28;20073;-76
2022/07/02 05:02:52;;;;;;;14.05;9.48;;;;;;;23.67;50.24;94112.47;4969213;28;20120;-76
2022/07/02 05:05:18;;;;;;;14.73;9.40;;;;;;;23.77;50.09;94122.53;4971837;28;20038;-76
2022/07/02 05:07:43;;;;;;;14.27;9.15;;;;;;;23.86;49.94;94125.63;4970636;28;20037;-77
2022/07/02 05:10:09;;;;;;;13.25;9.13;;;;;;;23.82;49.49;94076.00;4969932;28;20053;-77
2022/07/02 05:12:34;;;;;;;11.02;8.40;;;;;;;24.08;49.64;94136.47;4971355;28;20051;-77
2022/07/02 05:14:59;;;;;;;11.98;8.80;;;;;;;24.00;48.65;94128.34;4969674;28;20097;-77
2022/07/02 05:17:25;;;;;;;10.50;9.10;;;;;;;24.18;48.46;94135.72;4970052;28;20038;-76
2022/07/02 05:19:50;;;;;;;13.32;10.48;;;;;;;24.34;48.15;94136.06;4969608;28;21095;-75
2022/07/02 05:22:16;;;;;;;11.98;9.88;;;;;;;24.33;47.89;94118.22;4969956;28;20613;-75
2022/07/02 05:24:41;;;;;;;11.35;9.77;;;;;;;24.20;47.43;94095.34;4969960;28;20041;-76
2022/07/02 05:27:06;;;;;;;13.90;8.48;;;;;;;24.26;47.51;94138.03;4970363;28;20048;-76
2022/07/02 05:29:33;;;;;;;12.15;9.98;;;;;;;24.25;48.01;94116.66;4969894;28;20528;-76
2022/07/02 05:31:58;;;;;;;10.88;9.57;;;;;;;24.31;47.68;94134.13;4974619;28;20516;-77
2022/07/02 05:34:24;;;;;;;13.82;9.13;;;;;;;24.60;47.54;94151.91;4967014;28;20113;-76
2022/07/02 05:36:49;;;;;;;15.13;8.98;;;;;;;24.75;46.13;94142.56;4969617;28;20399;-77
2022/07/02 05:39:14;;;;;;;11.73;9.30;;;;;;;24.70;46.66;94118.44;4969024;28;20658;-76
2022/07/02 05:41:41;;;;;;;9.00;7.82;;;;;;;24.89;46.11;94149.09;4969140;28;20277;-76
2022/07/02 05:44:07;;;;;;;11.18;8.20;;;;;;;24.58;46.43;94137.94;4970087;28;20097;-76
2022/07/02 05:46:32;;;;;;;11.13;9.27;;;;;;;24.92;46.66;94145.59;4966641;28;20134;-77
2022/07/02 05:48:57;;;;;;;11.40;9.02;;;;;;;24.77;46.51;94118.47;4969065;28;20038;-76
2022/07/02 05:51:23;;;;;;;9.52;8.32;;;;;;;24.63;46.27;94134.81;4969011;28;20053;-77
2022/07/02 05:53:48;;;;;;;11.98;9.10;;;;;;;24.94;46.89;94159.56;4968756;28;20026;-76
2022/07/02 05:56:14;;;;;;;10.57;8.70;;;;;;;24.99;47.54;94150.97;4969041;28;20026;-76
2022/07/02 05:58:39;;;;;;;10.55;8.45;;;;;;;24.92;45.97;94116.44;4969457;28;20034;-77
2022/07/02 06:01:05;;;;;;;10.57;8.93;;;;;;;25.27;45.42;94157.03;4971156;28;20386;-76
2022/07/02 06:03:30;;;;;;;11.40;8.32;;;;;;;25.28;45.92;94152.38;4966137;28;20038;-76
2022/07/02 06:08:39;;;;;;;12.30;8.57;;;;;;;25.30;44.72;94155.47;4969053;28;20065;-77
2022/07/02 06:11:05;;;;;;;10.00;7.43;;;;;;;25.32;45.56;94158.63;4969806;28;20030;-75
2022/07/02 06:13:30;;;;;;;8.43;7.60;;;;;;;25.36;45.23;94137.59;4969680;28;20306;-77
2022/07/02 06:15:56;;;;;;;11.65;8.73;;;;;;;25.46;45.71;94133.25;4968903;28;20411;-77
2022/07/02 06:18:21;;;;;;;9.38;8.32;;;;;;;25.67;44.84;94152.13;4967648;28;20088;-77
2022/07/02 06:20:47;;;;;;;10.98;8.98;;;;;;;25.46;44.35;94152.31;4969308;28;20441;-76
2022/07/02 06:23:12;;;;;;;11.38;9.07;;;;;;;25.44;44.41;94157.38;4968022;28;20065;-77
2022/07/02 06:25:37;;;;;;;12.18;8.23;;;;;;;25.34;44.96;94131.75;4971241;28;20112;-76
2022/07/02 06:28:03;;;;;;;13.40;9.23;;;;;;;25.68;44.09;94150.97;4970815;28;20839;-77
2022/07/02 06:30:29;;;;;;;9.57;8.52;;;;;;;25.84;44.57;94161.34;4968868;28;20323;-76
2022/07/02 06:32:54;;;;;;;11.40;8.88;;;;;;;25.93;44.37;94153.50;4965703;28;20130;-77
2022/07/02 06:35:20;;;;;;;14.48;8.35;;;;;;;26.05;44.51;94155.75;4963764;28;20038;-77
2022/07/02 06:37:45;;;;;;;11.77;9.32;;;;;;;26.00;44.96;94164.38;4967958;28;20041;-76
2022/07/02 06:40:11;;;;;;;10.43;8.80;;;;;;;25.95;44.83;94160.13;4969209;28;20502;-77
2022/07/02 06:42:36;;;;;;;14.95;9.25;;;;;;;25.57;44.30;94117.56;4970559;28;20062;-76
2022/07/02 06:45:02;;;;;;;11.88;9.23;;;;;;;25.63;44.11;94143.22;4969696;28;20129;-76
2022/07/02 06:47:29;;;;;;;10.88;8.88;;;;;;;25.39;45.35;94150.41;4971109;28;20041;-76
2022/07/02 06:49:56;;;;;;;11.52;9.18;;;;;;;25.30;46.11;94160.94;4969333;28;20046;-76
2022/07/02 06:52:22;;;;;;;15.45;8.13;;;;;;;25.40;45.82;94170.22;4969427;28;20389;-76
2022/07/02 06:54:48;;;;;;;11.13;8.77;;;;;;;25.08;45.67;94165.69;4971507;28;20123;-76
2022/07/02 06:57:14;;;;;;;9.82;8.18;;;;;;;25.02;45.96;94145.53;4970799;28;20320;-77
2022/07/02 06:59:39;;;;;;;10.63;8.18;;;;;;;25.25;45.53;94121.28;4969317;28;20486;-76
2022/07/02 07:02:05;;;;;;;11.23;9.57;;;;;;;25.64;45.25;94153.72;4969596;28;20050;-76
2022/07/02 07:04:32;;;;;;;9.88;8.65;;;;;;;25.69;45.70;94158.75;4970278;28;20085;-77
2022/07/02 07:07:00;;;;;;;9.40;8.07;;;;;;;25.84;45.13;94167.56;4970738;28;20062;-76
2022/07/02 07:09:27;;;;;;;12.38;8.25;;;;;;;25.91;44.69;94151.19;4969571;28;20406;-77
2022/07/02 07:11:53;;;;;;;11.00;8.52;;;;;;;25.82;44.30;94161.75;4966793;28;20046;-77
2022/07/02 07:14:19;;;;;;;9.30;8.35;;;;;;;25.83;44.83;94173.41;4970542;28;20655;-77
2022/07/02 07:16:45;;;;;;;10.23;8.02;;;;;;;26.06;44.77;94174.41;4967415;28;20144;-76
2022/07/02 07:19:11;;;;;;;10.00;8.27;;;;;;;25.83;44.59;94176.13;4968756;28;20034;-77
2022/07/02 07:21:39;;;;;;;9.05;7.68;;;;;;;26.05;45.68;94178.34;4966936;28;20046;-76
2022/07/02 07:24:05;;;;;;;9.85;8.75;;;;;;;26.29;44.94;94187.47;4969314;28;20593;-76
2022/07/02 07:26:31;;;;;;;11.05;8.68;;;;;;;26.03;44.63;94167.06;4970342;28;20413;-76
2022/07/02 07:28:57;;;;;;;11.07;9.18;;;;;;;26.20;44.55;94187.16;4970137;28;20069;-76
2022/07/02 07:31:22;;;;;;;12.57;9.13;;;;;;;26.37;45.48;94186.19;4965187;28;20050;-76
2022/07/02 07:33:49;;;;;;;10.77;8.57;;;;;;;26.53;43.77;94172.03;4971298;28;20035;-76
2022/07/02 07:36:15;;;;;;;9.85;8.38;;;;;;;26.64;43.31;94171.94;4962692;28;20121;-76
2022/07/02 07:38:40;;;;;;;13.65;8.32;;;;;;;26.90;44.46;94188.38;4964625;28;20074;-77
2022/07/02 07:41:06;;;;;;;9.90;7.70;;;;;;;26.66;43.74;94183.19;4973767;28;20446;-77
2022/07/02 07:43:31;;;;;;;10.15;8.35;;;;;;;26.67;43.98;94173.84;4967025;28;20038;-77
2022/07/02 07:45:57;;;;;;;11.32;8.18;;;;;;;26.90;42.86;94174.72;4967756;28;20038;-77
2022/07/02 07:48:22;;;;;;;10.38;8.82;;;;;;;26.80;41.97;94158.47;4968178;28;20046;-77
2022/07/02 07:50:47;;;;;;;9.48;8.40;;;;;;;26.93;42.53;94170.41;4968252;28;20023;-76
2022/07/02 07:53:13;;;;;;;12.90;7.10;;;;;;;26.79;42.62;94184.25;4969535;28;20038;-76
2022/07/02 07:55:39;;;;;;;9.70;8.05;;;;;;;26.81;41.74;94162.75;4968046;28;20038;-76
2022/07/02 07:58:05;;;;;;;9.27;7.20;;;;;;;26.91;41.41;94176.28;4965596;28;20572;-76
2022/07/02 08:00:30;;;;;;;9.18;7.13;;;;;;;26.94;41.52;94185.59;4968281;28;20122;-77
2022/07/02 08:02:55;;;;;;;9.02;7.00;;;;;;;27.11;41.98;94178.41;4970426;28;20038;-77
2022/07/02 08:05:21;;;;;;;8.63;7.53;;;;;;;27.11;42.10;94179.19;4966735;28;20034;-76
2022/07/02 08:07:46;;;;;;;9.02;7.78;;;;;;;27.24;42.33;94185.63;4965969;28;20141;-77
2022/07/02 08:10:11;;;;;;;9.52;8.27;;;;;;;26.59;41.69;94177.84;4969056;28;20043;-76
2022/07/02 08:12:40;;;;;;;13.75;9.18;;;;;;;26.70;42.14;94168.34;4965193;28;20038;-76
2022/07/02 08:15:06;;;;;;;10.73;8.45;;;;;;;27.06;41.55;94192.50;4965184;28;20241;-75
2022/07/02 08:17:32;;;;;;;11.30;8.13;;;;;;;27.14;42.67;94191.22;4962162;28;20038;-77
2022/07/02 08:19:57;;;;;;;11.82;9.15;;;;;;;26.95;42.06;94185.19;4965034;28;20033;-76
2022/07/02 08:22:23;;;;;;;11.07;9.45;;;;;;;26.67;43.44;94157.47;4966758;28;20038;-77
2022/07/02 08:24:48;;;;;;;10.18;8.88;;;;;;;26.90;42.29;94174.72;4967048;28;20096;-77
2022/07/02 08:27:14;;;;;;;8.90;7.75;;;;;;;26.85;43.03;94149.84;4966210;28;20042;-76
2022/07/02 08:29:39;;;;;;;9.38;8.38;;;;;;;27.30;43.00;94194.91;4967904;28;20058;-74
2022/07/02 08:32:06;;;;;;;11.40;8.38;;;;;;;27.45;42.06;94190.03;4968700;28;20034;-75
2022/07/02 08:34:32;;;;;;;11.60;9.38;;;;;;;27.49;41.14;94192.69;4965847;28;20042;-77
2022/07/02 08:36:58;;;;;;;8.80;7.90;;;;;;;27.36;42.27;94178.84;4968804;28;20041;-75
2022/07/02 08:39:24;;;;;;;8.40;7.57;;;;;;;27.45;41.65;94202.91;4964848;28;20031;-75
2022/07/02 08:41:51;;;;;;;8.65;7.78;;;;;;;27.27;42.08;94197.69;4965316;28;20116;-74
2022/07/02 08:44:20;;;;;;;8.32;7.15;;;;;;;27.39;41.85;94197.91;4967518;28;20037;-74
2022/07/02 08:46:47;;;;;;;9.25;8.35;;;;;;;27.58;41.88;94203.91;4974873;28;20653;-74
2022/07/02 08:49:17;;;;;;;9.65;8.50;;;;;;;27.55;41.29;94191.06;4969064;28;20042;-74
2022/07/02 08:51:45;;;;;;;10.10;9.13;;;;;;;27.56;42.40;94178.97;4974495;28;20482;-76
2022/07/02 08:54:12;;;;;;;10.75;9.07;;;;;;;27.83;42.01;94209.78;4969325;28;20342;-75
2022/07/02 08:56:39;;;;;;;9.93;8.93;;;;;;;27.90;43.15;94204.22;4969315;28;20675;-75
2022/07/02 08:59:05;;;;;;;11.73;8.90;;;;;;;27.81;43.02;94206.72;4970263;28;20018;-75
2022/07/02 09:01:31;;;;;;;9.35;7.65;;;;;;;27.91;40.18;94200.31;4969286;28;20325;-76
2022/07/02 09:03:59;;;;;;;9.95;8.45;;;;;;;27.89;40.57;94213.59;4964536;28;20089;-74
2022/07/02 09:06:31;;;;;;;7.93;7.13;;;;;;;27.95;40.03;94202.97;4960986;28;20072;-75
2022/07/02 09:08:58;;;;;;;9.30;8.40;;;;;;;27.84;41.51;94205.88;4961059;28;20056;-75
2022/07/02 09:11:23;;;;;;;8.15;7.32;;;;;;;27.79;41.39;94193.44;4967624;28;20061;-74
2022/07/02 09:13:49;;;;;;;11.95;7.35;;;;;;;27.98;40.40;94210.34;4972445;28;20177;-75
2022/07/02 09:16:15;;;;;;;7.88;7.07;;;;;;;27.84;39.75;94167.63;4967431;28;20115;-74
2022/07/02 09:18:40;;;;;;;7.85;7.05;;;;;;;27.90;39.07;94182.38;4967174;28;20051;-76
2022/07/02 09:21:06;;;;;;;6.32;5.72;;;;;;;27.96;38.82;94169.75;4970282;28;20695;-75
2022/07/02 09:23:31;;;;;;;7.72;5.97;;;;;;;28.25;37.74;94192.72;4967786;28;21090;-76
2022/07/02 09:25:57;;;;;;;7.43;6.10;;;;;;;28.26;37.30;94204.44;4966612;28;20048;-75
2022/07/02 09:28:22;;;;;;;7.82;6.50;;;;;;;27.70;39.13;94200.63;4968547;28;20034;-75
2022/07/02 09:30:48;;;;;;;10.10;7.40;;;;;;;27.88;39.72;94203.09;4969569;28;20627;-74
2022/07/02 09:33:35;;;;;;;8.77;7.00;;;;;;;27.96;40.02;94183.41;4969003;28;20050;-75
2022/07/02 09:36:08;;;;;;;8.07;7.15;;;;;;;28.01;39.20;94188.41;5000686;28;20070;-76
2022/07/02 09:38:41;;;;;;;7.15;6.43;;;;;;;28.18;39.04;94198.31;4976940;28;20025;-74
2022/07/02 09:41:12;;;;;;;9.15;6.75;;;;;;;28.19;38.43;94188.16;4966910;28;20019;-76
2022/07/02 09:43:38;;;;;;;7.13;6.13;;;;;;;28.03;38.91;94180.56;4969952;28;20506;-74
2022/07/02 09:46:17;;;;;;;7.45;6.30;;;;;;;27.84;38.89;94184.00;4968573;28;20082;-75
2022/07/02 09:48:44;;;;;;;7.78;7.00;;;;;;;28.13;38.39;94192.56;4968421;28;20066;-75
2022/07/02 09:51:09;;;;;;;7.30;5.95;;;;;;;28.01;38.06;94188.41;4971375;28;20039;-75
2022/07/02 09:53:35;;;;;;;6.55;5.75;;;;;;;28.10;37.95;94191.44;4968780;28;20097;-74
2022/07/02 09:56:05;;;;;;;8.10;5.90;;;;;;;28.25;37.93;94191.97;4969401;28;20030;-76
2022/07/02 09:58:31;;;;;;;6.28;5.70;;;;;;;28.09;38.16;94169.94;4969453;28;20132;-74
2022/07/02 10:01:03;;;;;;;7.30;5.30;;;;;;;28.27;37.98;94186.84;4972754;28;20659;-75
2022/07/02 10:03:29;;;;;;;6.95;5.65;;;;;;;28.21;37.99;94155.69;4974217;28;20499;-75
2022/07/02 10:05:54;;;;;;;7.05;5.80;;;;;;;28.30;41.62;94177.03;4971468;28;20054;-75
2022/07/02 10:08:21;;;;;;;6.68;5.97;;;;;;;28.32;37.91;94161.75;4974105;28;20569;-74
2022/07/02 10:10:47;;;;;;;7.15;6.50;;;;;;;28.51;37.03;94171.94;4972375;28;20034;-75
2022/07/02 10:13:14;;;;;;;7.95;5.97;;;;;;;28.50;37.07;94153.22;4972590;28;20033;-74
2022/07/02 10:15:44;;;;;;;6.82;6.13;;;;;;;28.58;36.93;94155.41;4977197;28;20034;-75
2022/07/02 10:18:10;;;;;;;6.75;6.05;;;;;;;28.70;37.09;94153.25;4971248;28;20392;-74
2022/07/02 10:20:36;;;;;;;7.53;6.35;;;;;;;28.56;36.94;94155.03;4973404;28;20152;-74
2022/07/02 10:23:03;;;;;;;8.05;5.80;;;;;;;28.38;35.96;94162.81;4973749;28;20522;-75
2022/07/02 10:25:30;;;;;;;8.02;6.20;;;;;;;28.25;37.25;94138.03;4967424;28;20280;-76
2022/07/02 10:27:56;;;;;;;6.82;6.13;;;;;;;28.20;39.80;94146.72;4970216;28;20097;-75
2022/07/02 10:30:33;;;;;;;6.18;5.57;;;;;;;28.40;40.69;94149.47;4971235;28;20054;-75
2022/07/02 10:33:22;;;;;;;6.32;5.72;;;;;;;28.70;35.86;94162.22;4968721;28;20054;-76
2022/07/02 10:35:50;;;;;;;11.40;7.32;;;;;;;28.76;35.81;94148.81;4967144;28;20034;-75
2022/07/02 10:38:25;;;;;;;7.20;5.97;;;;;;;28.75;35.76;94137.09;4971647;28;20014;-75
2022/07/02 10:40:51;;;;;;;10.02;7.13;;;;;;;28.63;35.35;94121.31;4968105;28;21161;-75
2022/07/02 10:43:18;;;;;;;10.60;6.50;;;;;;;28.37;36.69;94144.06;4984849;28;20150;-75
2022/07/02 10:45:44;;;;;;;6.38;5.78;;;;;;;28.49;36.72;94135.25;4969451;28;20049;-75
2022/07/02 10:48:12;;;;;;;6.35;5.80;;;;;;;28.78;35.37;94141.75;4967884;28;20118;-73
2022/07/02 10:50:46;;;;;;;8.43;5.82;;;;;;;28.87;39.52;94141.97;4970340;28;20081;-74
2022/07/02 10:53:19;;;;;;;7.93;6.32;;;;;;;29.00;36.13;94142.06;4972244;28;20303;-75
2022/07/02 10:55:53;;;;;;;7.35;6.53;;;;;;;29.05;36.40;94149.78;4970673;28;20042;-75
2022/07/02 10:58:26;;;;;;;6.93;6.25;;;;;;;29.12;36.13;94144.19;4969887;28;20171;-74
2022/07/02 11:00:52;;;;;;;6.73;5.97;;;;;;;29.24;35.22;94140.03;4968252;28;20034;-74
2022/07/02 11:03:24;;;;;;;7.20;6.50;;;;;;;29.30;35.55;94141.06;4969547;28;20042;-76
2022/07/02 11:05:56;;;;;;;7.53;6.63;;;;;;;29.26;35.50;94140.38;4968616;28;20041;-75
2022/07/02 11:08:40;;;;;;;8.63;7.43;;;;;;;29.16;36.18;94135.91;4965043;28;20381;-75
2022/07/02 11:11:06;;;;;;;5.82;5.22;;;;;;;29.28;37.84;94136.00;4965808;28;20045;-74
2022/07/02 11:13:40;;;;;;;6.63;6.00;;;;;;;29.26;36.11;94132.16;4967886;28;20047;-77
2022/07/02 11:16:27;;;;;;;8.77;6.88;;;;;;;29.14;35.72;94119.09;4968251;28;20045;-75
2022/07/02 11:18:54;;;;;;;7.40;6.20;;;;;;;29.09;36.87;94115.66;4967940;28;20041;-74
2022/07/02 11:21:22;;;;;;;6.90;6.20;;;;;;;29.35;36.40;94135.09;4968019;28;20031;-75
2022/07/02 11:23:48;;;;;;;6.45;5.47;;;;;;;29.42;35.91;94129.47;4961299;28;20114;-75
2022/07/02 11:26:25;;;;;;;6.35;5.75;;;;;;;29.29;35.33;94112.13;4960064;28;20054;-76
2022/07/02 11:28:51;;;;;;;6.15;5.50;;;;;;;29.51;36.14;94124.16;4967939;28;20043;-75
2022/07/02 11:31:18;;;;;;;7.88;5.75;;;;;;;29.56;35.40;94117.41;4968315;28;20031;-75